Time;durP1;ratioP1;P1;durP2;ratioP2;P2;SDS_P1;SDS_P2;PMS_P1;PMS_P2;Temp;Humidity;BMP_temperature;BMP_pressure;BME280_temperature;BME280_humidity;BME280_pressure;Samples;Min_cycle;Max_cycle;Signal;HPM_P1;HPM_P2
2022/08/29 00:01:53;;;;;;;10.90;10.23;;;;;;;;;;5035483;28;20116;-63
2022/08/29 00:04:18;;;;;;;12.30;11.60;;;;;;;;;;5037479;28;20035;-63
2022/08/29 00:06:44;;;;;;;11.23;10.52;;;;;;;;;;5037478;28;20064;-63
2022/08/29 00:09:09;;;;;;;10.88;10.18;;;;;;;;;;5038229;28;20075;-63
2022/08/29 00:11:34;;;;;;;11.65;10.95;;;;;;;;;;5035015;28;20058;-63
2022/08/29 00:14:00;;;;;;;9.82;9.23;;;;;;;;;;5033671;28;20117;-63
2022/08/29 00:16:25;;;;;;;17.42;9.07;;;;;;;;;;5037229;28;20677;-63
2022/08/29 00:18:51;;;;;;;11.10;10.40;;;;;;;;;;5037075;28;20033;-63
2022/08/29 00:21:16;;;;;;;11.50;10.80;;;;;;;;;;5036072;28;20025;-63
2022/08/29 00:23:44;;;;;;;11.13;10.43;;;;;;;;;;5036111;28;20570;-62
2022/08/29 00:26:10;;;;;;;10.43;9.73;;;;;;;;;;5035941;28;20600;-63
2022/08/29 00:28:35;;;;;;;9.45;8.85;;;;;;;;;;5036201;28;20115;-63
2022/08/29 00:31:01;;;;;;;13.13;12.15;;;;;;;;;;5034421;28;20049;-62
2022/08/29 00:33:26;;;;;;;13.65;12.85;;;;;;;;;;5036000;28;20116;-63
2022/08/29 00:35:52;;;;;;;11.45;10.75;;;;;;;;;;5033597;28;20061;-63
2022/08/29 00:38:17;;;;;;;16.15;15.25;;;;;;;;;;5036334;28;20037;-63
2022/08/29 00:40:49;;;;;;;14.40;13.60;;;;;;;;;;5033485;28;20121;-63
2022/08/29 00:43:16;;;;;;;11.63;10.93;;;;;;;;;;5035910;28;20121;-62
2022/08/29 00:45:49;;;;;;;12.82;12.02;;;;;;;;;;5038427;28;20033;-63
2022/08/29 00:48:17;;;;;;;12.20;11.45;;;;;;;;;;5036244;28;20029;-63
2022/08/29 00:50:54;;;;;;;14.20;13.32;;;;;;;;;;5038797;28;20079;-63
2022/08/29 00:53:28;;;;;;;14.93;14.10;;;;;;;;;;5035176;28;20036;-63
2022/08/29 00:55:53;;;;;;;9.18;8.57;;;;;;;;;;5036362;28;20049;-63
2022/08/29 00:58:29;;;;;;;14.50;13.43;;;;;;;;;;5036642;28;20615;-62
2022/08/29 01:00:55;;;;;;;13.63;12.82;;;;;;;;;;5035257;28;20448;-62
2022/08/29 01:03:21;;;;;;;9.90;9.27;;;;;;;;;;5034839;28;20113;-62
2022/08/29 01:05:47;;;;;;;11.98;11.27;;;;;;;;;;5037340;28;20040;-64
2022/08/29 01:08:12;;;;;;;9.60;9.00;;;;;;;;;;5034127;28;20108;-62
2022/08/29 01:13:27;;;;;;;12.23;11.52;;;;;;;;;;5036103;28;20062;-62
2022/08/29 01:15:53;;;;;;;9.98;9.38;;;;;;;;;;5037969;28;20042;-62
2022/08/29 01:18:20;;;;;;;10.38;9.77;;;;;;;;;;5036141;28;20117;-62
2022/08/29 01:21:15;;;;;;;9.88;9.10;;;;;;;;;;5032352;28;20138;-62
2022/08/29 01:23:49;;;;;;;8.75;8.18;;;;;;;;;;5033795;28;20465;-62
2022/08/29 01:26:15;;;;;;;12.57;11.88;;;;;;;;;;5036495;28;20020;-62
2022/08/29 01:28:45;;;;;;;12.27;11.57;;;;;;;;;;5032080;28;20109;-61
2022/08/29 01:31:19;;;;;;;13.45;12.65;;;;;;;;;;5037663;28;20152;-62
2022/08/29 01:33:46;;;;;;;15.18;14.30;;;;;;;;;;5035002;28;20072;-62
2022/08/29 01:36:37;;;;;;;14.68;13.88;;;;;;;;;;5036815;28;20039;-62
2022/08/29 01:39:03;;;;;;;14.38;13.52;;;;;;;;;;5031847;28;20033;-61
2022/08/29 01:41:29;;;;;;;15.55;14.65;;;;;;;;;;5040481;28;20087;-62
2022/08/29 01:43:56;;;;;;;12.98;12.23;;;;;;;;;;5036765;28;20025;-62
2022/08/29 01:46:28;;;;;;;12.05;11.35;;;;;;;;;;5038779;28;20176;-62
2022/08/29 01:48:54;;;;;;;15.90;15.00;;;;;;;;;;5037267;28;20029;-62
2022/08/29 01:51:19;;;;;;;14.40;13.60;;;;;;;;;;5039826;28;20022;-62
2022/08/29 01:53:45;;;;;;;13.30;12.45;;;;;;;;;;5037490;28;20435;-62
2022/08/29 01:56:18;;;;;;;14.27;13.38;;;;;;;;;;5037545;28;20033;-62
2022/08/29 01:58:47;;;;;;;13.20;12.43;;;;;;;;;;5036249;28;20021;-61
2022/08/29 02:01:16;;;;;;;12.75;12.00;;;;;;;;;;5039563;28;20037;-62
2022/08/29 02:03:41;;;;;;;16.20;15.18;;;;;;;;;;5038852;28;20025;-62
2022/08/29 02:06:09;;;;;;;15.57;14.68;;;;;;;;;;5042878;28;20067;-64
2022/08/29 02:08:39;;;;;;;15.73;14.82;;;;;;;;;;5036668;28;20051;-62
2022/08/29 02:11:08;;;;;;;15.13;14.25;;;;;;;;;;5038006;28;20045;-62
2022/08/29 02:13:36;;;;;;;15.48;14.57;;;;;;;;;;5034649;28;20607;-62
2022/08/29 02:16:02;;;;;;;12.75;12.00;;;;;;;;;;5037748;28;20033;-62
2022/08/29 02:18:27;;;;;;;17.13;15.85;;;;;;;;;;5038053;28;20041;-62
2022/08/29 02:20:52;;;;;;;15.57;14.68;;;;;;;;;;5037793;28;20573;-62
2022/08/29 02:23:18;;;;;;;14.18;13.38;;;;;;;;;;5038243;28;20040;-62
2022/08/29 02:25:46;;;;;;;13.52;12.73;;;;;;;;;;5038134;28;20025;-62
2022/08/29 02:28:13;;;;;;;13.70;12.90;;;;;;;;;;5038595;28;20040;-62
2022/08/29 02:30:41;;;;;;;13.80;13.00;;;;;;;;;;5037969;28;20029;-65
2022/08/29 02:33:07;;;;;;;16.08;15.18;;;;;;;;;;5037646;28;20482;-62
2022/08/29 02:35:33;;;;;;;14.88;13.77;;;;;;;;;;5038703;28;20114;-64
2022/08/29 02:37:59;;;;;;;16.58;15.68;;;;;;;;;;5039253;28;20470;-61
2022/08/29 02:40:26;;;;;;;16.30;15.35;;;;;;;;;;5037606;28;20029;-62
2022/08/29 02:42:52;;;;;;;14.43;13.63;;;;;;;;;;5036475;28;20112;-62
2022/08/29 02:45:19;;;;;;;16.05;15.07;;;;;;;;;;5039023;28;20175;-61
2022/08/29 02:47:44;;;;;;;16.20;15.30;;;;;;;;;;5038423;28;20173;-62
2022/08/29 02:50:11;;;;;;;15.18;14.27;;;;;;;;;;5038556;28;20549;-64
2022/08/29 02:52:39;;;;;;;15.30;14.40;;;;;;;;;;5037343;28;20068;-64
2022/08/29 02:55:07;;;;;;;14.25;13.45;;;;;;;;;;5039839;28;20150;-64
2022/08/29 02:57:32;;;;;;;15.57;14.55;;;;;;;;;;5037030;28;20500;-63
2022/08/29 02:59:58;;;;;;;13.75;12.95;;;;;;;;;;5038022;28;20044;-63
2022/08/29 03:02:24;;;;;;;17.55;16.55;;;;;;;;;;5036943;28;20018;-63
2022/08/29 03:04:49;;;;;;;15.82;14.90;;;;;;;;;;5038516;28;20029;-63
2022/08/29 03:07:15;;;;;;;16.05;15.15;;;;;;;;;;5035060;28;20029;-63
2022/08/29 03:09:40;;;;;;;13.85;13.05;;;;;;;;;;5038479;28;20044;-64
2022/08/29 03:12:06;;;;;;;14.07;13.27;;;;;;;;;;5034876;28;20033;-64
2022/08/29 03:14:31;;;;;;;18.73;17.52;;;;;;;;;;5038293;28;20124;-64
2022/08/29 03:16:56;;;;;;;14.77;13.85;;;;;;;;;;5040689;28;20603;-64
2022/08/29 03:19:22;;;;;;;16.88;15.88;;;;;;;;;;5038742;28;20033;-64
2022/08/29 03:21:47;;;;;;;15.27;14.40;;;;;;;;;;5042470;28;20041;-64
2022/08/29 03:24:13;;;;;;;15.80;14.90;;;;;;;;;;5038021;28;20037;-64
2022/08/29 03:26:38;;;;;;;20.30;19.00;;;;;;;;;;5037446;28;20044;-64
2022/08/29 03:29:04;;;;;;;17.75;16.75;;;;;;;;;;5040831;28;20057;-63
2022/08/29 03:31:29;;;;;;;16.35;15.45;;;;;;;;;;5039750;28;20123;-64
2022/08/29 03:33:55;;;;;;;15.35;14.45;;;;;;;;;;5037003;28;20064;-63
2022/08/29 03:36:25;;;;;;;16.30;15.20;;;;;;;;;;5040830;28;20104;-64
2022/08/29 03:38:52;;;;;;;16.42;15.43;;;;;;;;;;5038615;28;20041;-63
2022/08/29 03:41:27;;;;;;;15.77;14.80;;;;;;;;;;5035316;28;20414;-63
2022/08/29 03:43:57;;;;;;;13.00;12.20;;;;;;;;;;5038636;28;20560;-63
2022/08/29 03:46:23;;;;;;;11.50;10.80;;;;;;;;;;5035970;28;20048;-63
2022/08/29 03:48:49;;;;;;;12.48;11.77;;;;;;;;;;5034998;28;20124;-63
2022/08/29 03:51:15;;;;;;;12.93;12.18;;;;;;;;;;5037788;28;20197;-63
2022/08/29 03:53:41;;;;;;;13.27;12.48;;;;;;;;;;5035489;28;20116;-63
2022/08/29 03:56:08;;;;;;;13.23;12.43;;;;;;;;;;5036407;28;20108;-63
2022/08/29 03:58:33;;;;;;;13.27;12.50;;;;;;;;;;5037843;28;20055;-63
2022/08/29 04:00:59;;;;;;;14.30;13.40;;;;;;;;;;5037578;28;20036;-63
2022/08/29 04:03:25;;;;;;;14.35;13.55;;;;;;;;;;5038876;28;20521;-63
2022/08/29 04:05:51;;;;;;;13.90;13.10;;;;;;;;;;5035633;28;20063;-63
2022/08/29 04:08:17;;;;;;;14.05;13.25;;;;;;;;;;5037456;28;20025;-63
2022/08/29 04:10:43;;;;;;;13.27;12.48;;;;;;;;;;5038594;28;20100;-61
2022/08/29 04:13:08;;;;;;;13.65;12.85;;;;;;;;;;5034782;28;20462;-63
2022/08/29 04:15:36;;;;;;;11.98;11.27;;;;;;;;;;5037627;28;20082;-61
2022/08/29 04:18:05;;;;;;;13.02;12.23;;;;;;;;;;5038409;28;20030;-61
2022/08/29 04:20:33;;;;;;;13.13;12.32;;;;;;;;;;5033768;28;20036;-63
2022/08/29 04:22:59;;;;;;;13.38;12.57;;;;;;;;;;5034430;28;20250;-63
2022/08/29 04:25:26;;;;;;;13.18;12.38;;;;;;;;;;5043235;28;20040;-63
2022/08/29 04:27:52;;;;;;;12.43;11.52;;;;;;;;;;5034944;28;20036;-61
2022/08/29 04:30:21;;;;;;;13.35;12.55;;;;;;;;;;5035558;28;20528;-61
2022/08/29 04:32:47;;;;;;;13.68;12.88;;;;;;;;;;5032287;28;20036;-61
2022/08/29 04:35:13;;;;;;;13.43;12.63;;;;;;;;;;5030820;28;20033;-62
2022/08/29 04:37:40;;;;;;;13.40;12.60;;;;;;;;;;5036273;28;20130;-62
2022/08/29 04:40:07;;;;;;;12.10;11.40;;;;;;;;;;5035090;28;20051;-62
2022/08/29 04:42:35;;;;;;;11.70;11.00;;;;;;;;;;5033796;28;20045;-62
2022/08/29 04:45:00;;;;;;;13.40;12.60;;;;;;;;;;5038367;28;20037;-62
2022/08/29 04:47:26;;;;;;;13.30;12.50;;;;;;;;;;5038726;28;20043;-62
2022/08/29 04:49:54;;;;;;;11.40;10.70;;;;;;;;;;5036439;28;20037;-61
2022/08/29 04:52:20;;;;;;;12.93;12.13;;;;;;;;;;5032811;28;20030;-61
2022/08/29 04:54:46;;;;;;;12.60;11.85;;;;;;;;;;5036148;28;20422;-62
2022/08/29 04:57:11;;;;;;;12.95;12.15;;;;;;;;;;5033362;28;20524;-62
2022/08/29 04:59:36;;;;;;;12.68;11.95;;;;;;;;;;5036521;28;20443;-62
2022/08/29 05:02:02;;;;;;;11.75;11.05;;;;;;;;;;5034936;28;20470;-62
2022/08/29 05:04:28;;;;;;;13.00;12.20;;;;;;;;;;5033987;28;20402;-61
2022/08/29 05:06:53;;;;;;;14.05;13.25;;;;;;;;;;5037828;28;20060;-62
2022/08/29 05:09:19;;;;;;;12.52;11.82;;;;;;;;;;5033693;28;20024;-62
2022/08/29 05:11:44;;;;;;;11.85;11.15;;;;;;;;;;5036330;28;20360;-62
2022/08/29 05:14:09;;;;;;;13.50;12.70;;;;;;;;;;5034338;28;20033;-62
2022/08/29 05:16:36;;;;;;;12.52;11.73;;;;;;;;;;5034150;28;20050;-62
2022/08/29 05:19:03;;;;;;;12.82;12.02;;;;;;;;;;5033731;28;20124;-62
2022/08/29 05:21:32;;;;;;;14.10;13.30;;;;;;;;;;5037818;28;20030;-62
2022/08/29 05:23:58;;;;;;;13.10;12.30;;;;;;;;;;5038425;28;20052;-62
2022/08/29 05:26:30;;;;;;;13.27;12.48;;;;;;;;;;5037563;28;20051;-62
2022/08/29 05:28:55;;;;;;;12.57;11.82;;;;;;;;;;5031821;28;20479;-62
2022/08/29 05:31:21;;;;;;;12.35;11.65;;;;;;;;;;5033639;28;20026;-62
2022/08/29 05:33:47;;;;;;;11.07;10.38;;;;;;;;;;5033200;28;20140;-62
2022/08/29 05:36:12;;;;;;;33.50;11.20;;;;;;;;;;5038185;28;20025;-62
2022/08/29 05:38:37;;;;;;;12.70;11.93;;;;;;;;;;5036088;28;20079;-62
2022/08/29 05:41:03;;;;;;;10.77;10.07;;;;;;;;;;5033632;28;20612;-61
2022/08/29 05:43:28;;;;;;;10.52;9.93;;;;;;;;;;5036956;28;20042;-61
2022/08/29 05:46:20;;;;;;;11.10;10.40;;;;;;;;;;5036681;28;20044;-62
2022/08/29 05:48:46;;;;;;;16.48;15.38;;;;;;;;;;5032300;28;20045;-62
2022/08/29 05:51:17;;;;;;;11.13;10.43;;;;;;;;;;5034354;28;20112;-61
2022/08/29 05:53:42;;;;;;;11.55;10.73;;;;;;;;;;5031299;28;20045;-62
2022/08/29 05:56:07;;;;;;;11.13;10.32;;;;;;;;;;5035818;28;20102;-62
2022/08/29 05:58:33;;;;;;;11.13;10.43;;;;;;;;;;5035122;28;20100;-62
2022/08/29 06:00:58;;;;;;;9.13;8.52;;;;;;;;;;5037699;28;20116;-62
2022/08/29 06:03:23;;;;;;;11.45;10.65;;;;;;;;;;5032718;28;20499;-61
2022/08/29 06:05:51;;;;;;;8.98;8.38;;;;;;;;;;5029932;28;20045;-61
2022/08/29 06:08:17;;;;;;;10.70;10.10;;;;;;;;;;5029058;28;20037;-61
2022/08/29 06:10:44;;;;;;;12.43;11.63;;;;;;;;;;5032825;28;20022;-61
2022/08/29 06:13:10;;;;;;;9.75;9.15;;;;;;;;;;5032846;28;20040;-62
2022/08/29 06:15:35;;;;;;;10.05;9.45;;;;;;;;;;5034530;28;20041;-62
2022/08/29 06:18:01;;;;;;;9.07;8.48;;;;;;;;;;5028406;28;20098;-62
2022/08/29 06:20:27;;;;;;;8.88;8.27;;;;;;;;;;5031201;28;20099;-62
2022/08/29 06:22:52;;;;;;;9.20;8.60;;;;;;;;;;5039727;28;20075;-62
2022/08/29 06:25:17;;;;;;;12.18;11.48;;;;;;;;;;5039616;28;20056;-62
2022/08/29 06:27:43;;;;;;;9.20;8.60;;;;;;;;;;5038480;28;20052;-62
2022/08/29 06:30:08;;;;;;;10.05;9.45;;;;;;;;;;5036692;28;20760;-63
2022/08/29 06:32:34;;;;;;;8.55;7.95;;;;;;;;;;5035778;28;20033;-62
2022/08/29 06:34:59;;;;;;;9.85;9.25;;;;;;;;;;5037725;28;20028;-63
2022/08/29 06:37:24;;;;;;;10.73;10.02;;;;;;;;;;5036222;28;20041;-62
2022/08/29 06:39:50;;;;;;;10.48;9.77;;;;;;;;;;5036721;28;20040;-62
2022/08/29 06:42:17;;;;;;;9.48;8.88;;;;;;;;;;5036432;28;20021;-62
2022/08/29 06:44:44;;;;;;;11.13;10.43;;;;;;;;;;5037361;28;20478;-63
2022/08/29 06:47:09;;;;;;;13.02;12.23;;;;;;;;;;5037049;28;20080;-63
2022/08/29 06:49:34;;;;;;;12.30;11.55;;;;;;;;;;5034763;28;20067;-63
2022/08/29 06:52:00;;;;;;;12.43;11.73;;;;;;;;;;5036937;28;20041;-64
2022/08/29 06:54:28;;;;;;;13.35;12.55;;;;;;;;;;5035925;28;20425;-63
2022/08/29 06:56:54;;;;;;;15.20;14.30;;;;;;;;;;5036860;28;20037;-64
2022/08/29 06:59:20;;;;;;;16.30;15.30;;;;;;;;;;5037114;28;20359;-63
2022/08/29 07:01:46;;;;;;;15.00;14.10;;;;;;;;;;5036467;28;20033;-63
2022/08/29 07:04:12;;;;;;;15.07;14.20;;;;;;;;;;5035697;28;20751;-63
2022/08/29 07:06:37;;;;;;;15.73;14.73;;;;;;;;;;5037602;28;20041;-63
2022/08/29 07:09:04;;;;;;;14.20;13.30;;;;;;;;;;5040553;28;20039;-63
2022/08/29 07:11:30;;;;;;;15.75;14.63;;;;;;;;;;5034718;28;20025;-63
2022/08/29 07:13:58;;;;;;;16.20;15.30;;;;;;;;;;5037390;28;20030;-63
2022/08/29 07:16:24;;;;;;;12.48;11.77;;;;;;;;;;5035131;28;20032;-63
2022/08/29 07:18:50;;;;;;;9.40;8.80;;;;;;;;;;5034203;28;20037;-63
2022/08/29 07:21:17;;;;;;;16.35;15.45;;;;;;;;;;5033965;28;20487;-63
2022/08/29 07:23:43;;;;;;;9.23;8.63;;;;;;;;;;5033453;28;20091;-62
2022/08/29 07:26:09;;;;;;;7.85;7.35;;;;;;;;;;5037610;28;20116;-62
2022/08/29 07:28:35;;;;;;;9.75;9.15;;;;;;;;;;5034227;28;20029;-63
2022/08/29 07:31:02;;;;;;;10.80;10.15;;;;;;;;;;5036385;28;20029;-63
2022/08/29 07:33:28;;;;;;;11.27;10.48;;;;;;;;;;5035653;28;20134;-63
2022/08/29 07:35:53;;;;;;;10.38;9.68;;;;;;;;;;5037234;28;20056;-63
2022/08/29 07:38:19;;;;;;;9.73;9.13;;;;;;;;;;5034160;28;20096;-63
2022/08/29 07:40:45;;;;;;;9.45;8.85;;;;;;;;;;5035424;28;20373;-63
2022/08/29 07:43:10;;;;;;;10.07;9.48;;;;;;;;;;5043642;28;20033;-63
2022/08/29 07:45:38;;;;;;;7.57;7.07;;;;;;;;;;5037324;28;20033;-62
2022/08/29 07:48:04;;;;;;;8.20;7.70;;;;;;;;;;5037267;28;20125;-62
2022/08/29 07:50:29;;;;;;;8.10;7.57;;;;;;;;;;5042006;28;20577;-62
2022/08/29 07:52:54;;;;;;;6.88;6.38;;;;;;;;;;5037159;28;20032;-62
2022/08/29 07:55:20;;;;;;;7.50;6.95;;;;;;;;;;5038259;28;20095;-62
2022/08/29 07:57:47;;;;;;;6.88;6.38;;;;;;;;;;5037770;28;20043;-62
2022/08/29 08:00:13;;;;;;;5.95;5.55;;;;;;;;;;5037930;28;20040;-62
2022/08/29 08:02:38;;;;;;;8.52;7.90;;;;;;;;;;5036132;28;20082;-62
2022/08/29 08:05:04;;;;;;;6.43;5.93;;;;;;;;;;5036490;28;20025;-62
2022/08/29 08:07:33;;;;;;;5.75;5.35;;;;;;;;;;5034908;28;20039;-62
2022/08/29 08:09:59;;;;;;;7.35;6.85;;;;;;;;;;5033571;28;20082;-62
2022/08/29 08:12:25;;;;;;;7.63;7.13;;;;;;;;;;5032832;28;20559;-63
2022/08/29 08:14:51;;;;;;;9.70;9.00;;;;;;;;;;5037942;28;20025;-62
2022/08/29 08:17:16;;;;;;;7.53;7.03;;;;;;;;;;5035801;28;20032;-63
2022/08/29 08:19:43;;;;;;;6.75;6.25;;;;;;;;;;5036108;28;20039;-63
2022/08/29 08:22:08;;;;;;;6.18;5.78;;;;;;;;;;5036859;28;20038;-63
2022/08/29 08:24:34;;;;;;;6.65;6.15;;;;;;;;;;5034071;28;20051;-63
2022/08/29 08:26:59;;;;;;;6.15;5.75;;;;;;;;;;5032556;28;20388;-63
2022/08/29 08:29:25;;;;;;;6.47;5.97;;;;;;;;;;5034169;28;20403;-63
2022/08/29 08:31:51;;;;;;;6.35;5.95;;;;;;;;;;5032450;28;20592;-65
2022/08/29 08:34:17;;;;;;;7.07;6.57;;;;;;;;;;5033941;28;20025;-64
2022/08/29 08:36:44;;;;;;;7.00;6.50;;;;;;;;;;5035750;28;20037;-63
2022/08/29 08:39:11;;;;;;;6.75;6.15;;;;;;;;;;5033097;28;20517;-62
2022/08/29 08:41:45;;;;;;;7.22;6.57;;;;;;;;;;5034261;28;20052;-62
2022/08/29 08:44:54;;;;;;;6.85;6.35;;;;;;;;;;5037946;28;20537;-63
2022/08/29 08:47:43;;;;;;;7.68;6.82;;;;;;;;;;5030046;28;20100;-62
2022/08/29 08:50:17;;;;;;;7.63;7.13;;;;;;;;;;5037458;28;20032;-62
2022/08/29 08:52:51;;;;;;;6.72;6.25;;;;;;;;;;5035728;28;20526;-62
2022/08/29 08:55:44;;;;;;;6.60;6.15;;;;;;;;;;5036748;28;20082;-62
2022/08/29 08:58:25;;;;;;;6.85;6.35;;;;;;;;;;5033335;28;20033;-62
2022/08/29 09:00:57;;;;;;;8.68;7.78;;;;;;;;;;5034550;28;20033;-62
2022/08/29 09:03:47;;;;;;;7.32;6.82;;;;;;;;;;5036527;28;20521;-62
2022/08/29 09:06:39;;;;;;;6.57;6.10;;;;;;;;;;5036288;28;20040;-62
2022/08/29 09:09:05;;;;;;;10.32;6.32;;;;;;;;;;5033821;28;20040;-62
2022/08/29 09:11:48;;;;;;;6.43;6.00;;;;;;;;;;5038220;28;20390;-62
2022/08/29 09:14:26;;;;;;;6.50;6.00;;;;;;;;;;5032726;28;20029;-62
2022/08/29 09:16:55;;;;;;;7.53;7.03;;;;;;;;;;5038297;28;20028;-62
2022/08/29 09:19:20;;;;;;;7.93;7.43;;;;;;;;;;5033000;28;20033;-62
2022/08/29 09:21:53;;;;;;;6.68;6.20;;;;;;;;;;5033619;28;20513;-63
2022/08/29 09:24:33;;;;;;;7.75;7.25;;;;;;;;;;5033327;28;20056;-63
2022/08/29 09:26:58;;;;;;;7.47;6.97;;;;;;;;;;5034365;28;20421;-62
2022/08/29 09:29:27;;;;;;;6.07;5.68;;;;;;;;;;5032486;28;20037;-63
2022/08/29 09:32:11;;;;;;;7.80;7.30;;;;;;;;;;5033312;28;20119;-62
2022/08/29 09:34:40;;;;;;;11.55;10.85;;;;;;;;;;5020750;28;20035;-62
2022/08/29 09:37:21;;;;;;;10.85;10.15;;;;;;;;;;5033303;28;20037;-62
2022/08/29 09:40:10;;;;;;;7.57;7.07;;;;;;;;;;5037441;28;20029;-62
2022/08/29 09:43:01;;;;;;;16.52;15.60;;;;;;;;;;5033523;28;20029;-62
2022/08/29 09:45:27;;;;;;;11.55;10.75;;;;;;;;;;5035051;28;20112;-61
2022/08/29 09:48:16;;;;;;;12.48;11.68;;;;;;;;;;5034545;28;20109;-62
2022/08/29 09:50:42;;;;;;;23.08;21.77;;;;;;;;;;5035901;28;20028;-61
2022/08/29 09:53:07;;;;;;;17.63;16.52;;;;;;;;;;5033846;28;20905;-61
2022/08/29 09:55:44;;;;;;;24.50;23.13;;;;;;;;;;5035790;28;20076;-61
2022/08/29 09:58:17;;;;;;;25.15;23.77;;;;;;;;;;5040800;28;20113;-61
2022/08/29 10:01:00;;;;;;;23.38;22.13;;;;;;;;;;5037684;28;20047;-62
2022/08/29 10:03:31;;;;;;;27.40;25.98;;;;;;;;;;5039409;28;20116;-62
2022/08/29 10:06:05;;;;;;;25.55;24.17;;;;;;;;;;5036564;28;20045;-62
2022/08/29 10:08:35;;;;;;;23.95;22.60;;;;;;;;;;5039250;28;20047;-62
2022/08/29 10:11:24;;;;;;;34.72;32.67;;;;;;;;;;5037402;28;20032;-62
2022/08/29 10:13:54;;;;;;;35.38;33.58;;;;;;;;;;5036213;28;20029;-63
2022/08/29 10:16:25;;;;;;;23.02;21.77;;;;;;;;;;5037167;28;20025;-63
2022/08/29 10:19:05;;;;;;;19.88;18.77;;;;;;;;;;5036602;28;20482;-62
2022/08/29 10:22:03;;;;;;;37.60;35.70;;;;;;;;;;5036331;28;20095;-63
2022/08/29 10:24:55;;;;;;;23.35;22.08;;;;;;;;;;5034107;28;20094;-63
2022/08/29 10:27:50;;;;;;;41.65;39.50;;;;;;;;;;5037389;28;20115;-63
2022/08/29 10:30:20;;;;;;;31.50;29.83;;;;;;;;;;5037064;28;20029;-63
2022/08/29 10:32:56;;;;;;;64.67;61.47;;;;;;;;;;5038431;28;20509;-64
2022/08/29 10:35:28;;;;;;;60.08;57.10;;;;;;;;;;5032675;28;20478;-63
2022/08/29 10:38:18;;;;;;;38.75;36.75;;;;;;;;;;5039741;28;20463;-63
2022/08/29 10:40:48;;;;;;;145.25;138.05;;;;;;;;;;5039730;28;20143;-63
2022/08/29 10:43:35;;;;;;;102.40;97.38;;;;;;;;;;5037071;28;20043;-63
2022/08/29 10:46:31;;;;;;;48.78;46.30;;;;;;;;;;5040072;28;20048;-64
2022/08/29 10:49:08;;;;;;;68.20;64.82;;;;;;;;;;5041661;28;20052;-64
2022/08/29 10:52:00;;;;;;;115.25;109.55;;;;;;;;;;5038730;28;20037;-64
2022/08/29 10:54:28;;;;;;;117.05;111.28;;;;;;;;;;5012325;28;20053;-63
2022/08/29 10:56:54;;;;;;;81.93;77.85;;;;;;;;;;5039419;28;20127;-64
2022/08/29 10:59:49;;;;;;;35.13;33.33;;;;;;;;;;5036662;28;20037;-63
2022/08/29 11:02:26;;;;;;;127.15;120.63;;;;;;;;;;5040524;28;20090;-63
2022/08/29 11:04:55;;;;;;;84.13;79.97;;;;;;;;;;5038390;28;20037;-64
2022/08/29 11:07:29;;;;;;;94.30;89.60;;;;;;;;;;5037828;28;20025;-64
2022/08/29 11:09:59;;;;;;;160.88;152.98;;;;;;;;;;5036860;28;20025;-63
2022/08/29 11:12:36;;;;;;;;;;;;;;;;;;5039162;28;20487;-63
2022/08/29 11:15:14;;;;;;;112.53;106.97;;;;;;;;;;5036406;28;20007;-63
2022/08/29 11:17:43;;;;;;;148.50;141.15;;;;;;;;;;5038353;28;20539;-63
2022/08/29 11:20:25;;;;;;;137.38;130.60;;;;;;;;;;5036703;28;21822;-63
2022/08/29 11:23:11;;;;;;;133.75;127.15;;;;;;;;;;5034309;28;20025;-63
2022/08/29 11:25:40;;;;;;;121.22;115.25;;;;;;;;;;5039259;28;20041;-63
2022/08/29 11:28:14;;;;;;;142.20;135.25;;;;;;;;;;5039180;28;20036;-63
2022/08/29 11:30:52;;;;;;;171.98;163.60;;;;;;;;;;5038719;28;20029;-63
2022/08/29 11:33:34;;;;;;;149.48;141.35;;;;;;;;;;5036011;28;20026;-63
2022/08/29 11:36:10;;;;;;;158.88;151.07;;;;;;;;;;5033711;28;20052;-63
2022/08/29 11:39:09;;;;;;;183.20;174.20;;;;;;;;;;5033007;28;20107;-63
2022/08/29 11:41:37;;;;;;;130.93;124.45;;;;;;;;;;5035826;28;20068;-64
2022/08/29 11:44:25;;;;;;;83.93;79.82;;;;;;;;;;5036395;28;20102;-63
2022/08/29 11:46:52;;;;;;;153.70;146.18;;;;;;;;;;5036180;28;20374;-62
2022/08/29 11:49:30;;;;;;;145.98;138.80;;;;;;;;;;5039614;28;20082;-63
2022/08/29 11:52:09;;;;;;;209.32;199.15;;;;;;;;;;5035936;28;20056;-63
2022/08/29 11:54:35;;;;;;;151.82;144.40;;;;;;;;;;5044702;28;20056;-65
2022/08/29 11:57:01;;;;;;;164.43;156.35;;;;;;;;;;5037755;28;20124;-62
2022/08/29 11:59:48;;;;;;;177.13;168.43;;;;;;;;;;5037597;28;20120;-63
2022/08/29 12:02:31;;;;;;;176.10;167.50;;;;;;;;;;5035829;28;20037;-61
2022/08/29 12:05:15;;;;;;;163.73;155.68;;;;;;;;;;5036532;28;20032;-63
2022/08/29 12:07:57;;;;;;;163.20;155.20;;;;;;;;;;5035951;28;20036;-62
2022/08/29 12:10:30;;;;;;;192.00;182.30;;;;;;;;;;5036940;28;20055;-62
2022/08/29 12:13:05;;;;;;;248.48;236.40;;;;;;;;;;5034862;28;20521;-63
2022/08/29 12:15:33;;;;;;;174.10;165.48;;;;;;;;;;5036828;28;20103;-62
2022/08/29 12:18:18;;;;;;;159.52;151.55;;;;;;;;;;5036838;28;20036;-64
2022/08/29 12:20:55;;;;;;;182.80;173.90;;;;;;;;;;5026000;28;20120;-64
2022/08/29 12:23:30;;;;;;;197.38;187.77;;;;;;;;;;5033529;28;20029;-63
2022/08/29 12:26:04;;;;;;;158.30;150.48;;;;;;;;;;5032011;28;20026;-62
2022/08/29 12:28:46;;;;;;;142.27;135.27;;;;;;;;;;5035945;28;20037;-64
2022/08/29 12:31:39;;;;;;;140.73;133.77;;;;;;;;;;5035271;28;20067;-63
2022/08/29 12:34:07;;;;;;;160.23;152.35;;;;;;;;;;5036076;28;20072;-62
2022/08/29 12:36:52;;;;;;;157.93;150.18;;;;;;;;;;5036095;28;20036;-63
2022/08/29 12:39:51;;;;;;;174.15;164.23;;;;;;;;;;5035621;28;20065;-63
2022/08/29 12:42:31;;;;;;;127.07;120.82;;;;;;;;;;5034497;28;20478;-62
2022/08/29 12:44:58;;;;;;;;;;;;;;;;;;5038371;28;20077;-63
2022/08/29 12:47:27;;;;;;;170.10;161.75;;;;;;;;;;5037157;28;19920;-63
2022/08/29 12:49:55;;;;;;;174.48;165.95;;;;;;;;;;5031751;28;20033;-63
2022/08/29 12:52:36;;;;;;;138.80;131.98;;;;;;;;;;5036776;28;20036;-63
2022/08/29 12:55:23;;;;;;;208.30;198.15;;;;;;;;;;5034807;28;20084;-63
2022/08/29 12:57:50;;;;;;;152.93;145.40;;;;;;;;;;5035608;28;20084;-63
2022/08/29 13:00:22;;;;;;;152.20;144.70;;;;;;;;;;5037020;28;20029;-63
2022/08/29 13:03:07;;;;;;;136.57;129.88;;;;;;;;;;5041440;28;20025;-62
2022/08/29 13:05:36;;;;;;;157.25;149.48;;;;;;;;;;5032506;28;20112;-64
2022/08/29 13:08:07;;;;;;;126.43;120.20;;;;;;;;;;5036569;28;20621;-63
2022/08/29 13:10:38;;;;;;;160.00;152.15;;;;;;;;;;5031944;28;20037;-62
2022/08/29 13:13:17;;;;;;;174.70;166.10;;;;;;;;;;5033444;28;20072;-62
2022/08/29 13:15:48;;;;;;;157.25;149.48;;;;;;;;;;5033613;28;20037;-62
2022/08/29 13:18:15;;;;;;;137.48;130.68;;;;;;;;;;5031570;28;20138;-62
2022/08/29 13:21:01;;;;;;;167.85;159.57;;;;;;;;;;5035399;28;20025;-62
2022/08/29 13:23:32;;;;;;;156.40;148.73;;;;;;;;;;5036600;28;20037;-63
2022/08/29 13:25:57;;;;;;;131.48;124.95;;;;;;;;;;5036773;28;20033;-62
2022/08/29 13:28:37;;;;;;;144.88;137.75;;;;;;;;;;5035312;28;20041;-63
2022/08/29 13:31:15;;;;;;;163.32;155.32;;;;;;;;;;5035635;28;20029;-63
2022/08/29 13:33:49;;;;;;;150.80;143.40;;;;;;;;;;5033678;28;20458;-63
2022/08/29 13:36:28;;;;;;;203.82;193.90;;;;;;;;;;5034841;28;20471;-63
2022/08/29 13:39:33;;;;;;;146.73;139.48;;;;;;;;;;5037503;28;20037;-63
2022/08/29 13:41:59;;;;;;;131.00;124.53;;;;;;;;;;5035684;28;20094;-64
2022/08/29 13:44:44;;;;;;;135.82;129.13;;;;;;;;;;5035304;28;20037;-63
2022/08/29 13:47:24;;;;;;;150.73;143.32;;;;;;;;;;5034314;28;20044;-64
2022/08/29 13:49:50;;;;;;;176.02;167.35;;;;;;;;;;5035177;28;20044;-64
2022/08/29 13:52:17;;;;;;;138.45;131.65;;;;;;;;;;5034640;28;20600;-63
2022/08/29 13:54:43;;;;;;;150.00;142.60;;;;;;;;;;5034285;28;20374;-64
2022/08/29 13:57:16;;;;;;;143.77;136.70;;;;;;;;;;5033465;28;20086;-64
2022/08/29 13:59:42;;;;;;;158.05;150.30;;;;;;;;;;5035912;28;20049;-63
2022/08/29 14:02:07;;;;;;;152.45;144.95;;;;;;;;;;5032864;28;20025;-64
2022/08/29 14:04:33;;;;;;;147.77;140.48;;;;;;;;;;5032392;28;20037;-64
2022/08/29 14:06:59;;;;;;;190.52;181.20;;;;;;;;;;5033329;28;20533;-64
2022/08/29 14:09:31;;;;;;;140.75;133.80;;;;;;;;;;5036818;28;20101;-64
2022/08/29 14:11:57;;;;;;;151.63;144.13;;;;;;;;;;5035145;28;20033;-64
2022/08/29 14:14:22;;;;;;;126.88;120.65;;;;;;;;;;5033629;28;20030;-64
2022/08/29 14:16:52;;;;;;;120.35;114.38;;;;;;;;;;5034694;28;20049;-63
2022/08/29 14:19:20;;;;;;;131.10;124.65;;;;;;;;;;5035244;28;20032;-64
2022/08/29 14:21:45;;;;;;;124.13;118.03;;;;;;;;;;5035951;28;20036;-64
2022/08/29 14:24:11;;;;;;;114.57;108.93;;;;;;;;;;5034357;28;20095;-64
2022/08/29 14:26:37;;;;;;;110.05;104.55;;;;;;;;;;5035066;28;20091;-63
2022/08/29 14:29:03;;;;;;;120.82;114.90;;;;;;;;;;5037485;28;20032;-64
2022/08/29 14:31:29;;;;;;;115.50;109.80;;;;;;;;;;5030768;28;20036;-63
2022/08/29 14:33:54;;;;;;;119.97;114.07;;;;;;;;;;5033243;28;20102;-63
2022/08/29 14:36:19;;;;;;;120.30;114.40;;;;;;;;;;5036939;28;20461;-64
2022/08/29 14:38:45;;;;;;;126.45;120.05;;;;;;;;;;5036489;28;20398;-64